sensor_id;sensor_type;location;lat;lon;timestamp;P1;durP1;ratioP1;P2;durP2;ratioP2
8450;SDS011;4262;50.980;13.892;2022-12-07T04:32:45;19.90;;;11.50;;
8450;SDS011;4262;50.980;13.892;2022-12-07T04:35:12;18.93;;;11.30;;
8450;SDS011;4262;50.980;13.892;2022-12-07T04:37:38;19.77;;;12.20;;
8450;SDS011;4262;50.980;13.892;2022-12-07T04:40:06;21.20;;;13.40;;
8450;SDS011;4262;50.980;13.892;2022-12-07T04:42:38;18.60;;;11.97;;
8450;SDS011;4262;50.980;13.892;2022-12-07T04:45:05;18.40;;;11.60;;
8450;SDS011;4262;50.980;13.892;2022-12-07T04:47:35;20.97;;;11.30;;
8450;SDS011;4262;50.980;13.892;2022-12-07T04:50:04;22.07;;;11.40;;
8450;SDS011;4262;50.980;13.892;2022-12-07T04:52:31;23.30;;;12.50;;
8450;SDS011;4262;50.980;13.892;2022-12-07T04:54:58;18.50;;;11.57;;
8450;SDS011;4262;50.980;13.892;2022-12-07T04:57:25;20.57;;;11.53;;
8450;SDS011;4262;50.980;13.892;2022-12-07T04:59:51;17.90;;;10.77;;
8450;SDS011;4262;50.980;13.892;2022-12-07T05:02:18;16.90;;;10.77;;
8450;SDS011;4262;50.980;13.892;2022-12-07T05:04:45;18.00;;;11.00;;
8450;SDS011;4262;50.980;13.892;2022-12-07T05:07:13;19.70;;;11.33;;
8450;SDS011;4262;50.980;13.892;2022-12-07T05:09:41;18.13;;;10.93;;
8450;SDS011;4262;50.980;13.892;2022-12-07T05:12:08;17.43;;;9.47;;
8450;SDS011;4262;50.980;13.892;2022-12-07T05:14:35;15.57;;;10.57;;
8450;SDS011;4262;50.980;13.892;2022-12-07T05:17:01;18.40;;;10.83;;
8450;SDS011;4262;50.980;13.892;2022-12-07T05:19:31;18.60;;;10.97;;
8450;SDS011;4262;50.980;13.892;2022-12-07T05:21:58;24.30;;;10.07;;
8450;SDS011;4262;50.980;13.892;2022-12-07T05:24:26;18.20;;;10.40;;
8450;SDS011;4262;50.980;13.892;2022-12-07T05:26:53;17.00;;;10.97;;
8450;SDS011;4262;50.980;13.892;2022-12-07T05:29:20;18.10;;;10.77;;
8450;SDS011;4262;50.980;13.892;2022-12-07T05:31:47;18.27;;;11.30;;
8450;SDS011;4262;50.980;13.892;2022-12-07T05:34:14;19.40;;;12.20;;
8450;SDS011;4262;50.980;13.892;2022-12-07T05:36:41;19.47;;;11.67;;
8450;SDS011;4262;50.980;13.892;2022-12-07T05:39:08;18.63;;;11.17;;
8450;SDS011;4262;50.980;13.892;2022-12-07T05:41:36;19.30;;;11.03;;
8450;SDS011;4262;50.980;13.892;2022-12-07T05:44:21;20.33;;;11.47;;
8450;SDS011;4262;50.980;13.892;2022-12-07T05:46:48;17.00;;;10.87;;
8450;SDS011;4262;50.980;13.892;2022-12-07T05:49:16;17.47;;;10.60;;
8450;SDS011;4262;50.980;13.892;2022-12-07T05:51:43;20.93;;;10.70;;
8450;SDS011;4262;50.980;13.892;2022-12-07T05:54:11;18.33;;;11.23;;
8450;SDS011;4262;50.980;13.892;2022-12-07T05:56:39;19.87;;;12.03;;
8450;SDS011;4262;50.980;13.892;2022-12-07T05:59:07;16.57;;;10.63;;
8450;SDS011;4262;50.980;13.892;2022-12-07T06:01:50;17.70;;;10.73;;
8450;SDS011;4262;50.980;13.892;2022-12-07T06:04:17;17.73;;;11.13;;
8450;SDS011;4262;50.980;13.892;2022-12-07T06:06:45;15.57;;;10.20;;
8450;SDS011;4262;50.980;13.892;2022-12-07T06:09:12;16.23;;;9.50;;
8450;SDS011;4262;50.980;13.892;2022-12-07T06:11:41;17.33;;;11.33;;
8450;SDS011;4262;50.980;13.892;2022-12-07T06:14:26;20.07;;;9.43;;
8450;SDS011;4262;50.980;13.892;2022-12-07T06:16:53;15.37;;;9.00;;
8450;SDS011;4262;50.980;13.892;2022-12-07T06:19:22;17.50;;;10.10;;
8450;SDS011;4262;50.980;13.892;2022-12-07T06:21:49;16.87;;;10.20;;
8450;SDS011;4262;50.980;13.892;2022-12-07T06:24:17;18.00;;;10.80;;
8450;SDS011;4262;50.980;13.892;2022-12-07T06:26:45;18.27;;;10.67;;
8450;SDS011;4262;50.980;13.892;2022-12-07T06:29:13;17.57;;;10.40;;
8450;SDS011;4262;50.980;13.892;2022-12-07T06:31:40;16.63;;;10.60;;
8450;SDS011;4262;50.980;13.892;2022-12-07T06:34:08;17.60;;;10.70;;
8450;SDS011;4262;50.980;13.892;2022-12-07T06:36:36;18.37;;;10.43;;
8450;SDS011;4262;50.980;13.892;2022-12-07T06:39:04;17.33;;;9.70;;
8450;SDS011;4262;50.980;13.892;2022-12-07T06:41:31;16.07;;;10.37;;
8450;SDS011;4262;50.980;13.892;2022-12-07T06:44:01;19.10;;;9.83;;
8450;SDS011;4262;50.980;13.892;2022-12-07T06:46:28;15.67;;;10.00;;
8450;SDS011;4262;50.980;13.892;2022-12-07T06:48:56;16.47;;;10.17;;
8450;SDS011;4262;50.980;13.892;2022-12-07T06:51:23;15.90;;;8.90;;
8450;SDS011;4262;50.980;13.892;2022-12-07T06:53:52;16.23;;;10.43;;
8450;SDS011;4262;50.980;13.892;2022-12-07T06:56:19;18.90;;;10.23;;
8450;SDS011;4262;50.980;13.892;2022-12-07T06:58:46;13.90;;;8.07;;
8450;SDS011;4262;50.980;13.892;2022-12-07T07:01:15;14.27;;;9.20;;
8450;SDS011;4262;50.980;13.892;2022-12-07T07:03:45;12.80;;;8.50;;
8450;SDS011;4262;50.980;13.892;2022-12-07T07:06:13;11.90;;;7.47;;
8450;SDS011;4262;50.980;13.892;2022-12-07T07:08:40;12.83;;;8.33;;
8450;SDS011;4262;50.980;13.892;2022-12-07T07:11:08;11.17;;;7.30;;
8450;SDS011;4262;50.980;13.892;2022-12-07T07:13:37;10.37;;;7.60;;
8450;SDS011;4262;50.980;13.892;2022-12-07T07:16:04;10.33;;;7.03;;
8450;SDS011;4262;50.980;13.892;2022-12-07T07:18:35;13.10;;;8.53;;
8450;SDS011;4262;50.980;13.892;2022-12-07T07:21:02;12.23;;;7.83;;
8450;SDS011;4262;50.980;13.892;2022-12-07T07:23:31;10.90;;;6.70;;
8450;SDS011;4262;50.980;13.892;2022-12-07T07:25:58;13.20;;;7.80;;
8450;SDS011;4262;50.980;13.892;2022-12-07T07:28:25;10.30;;;6.83;;
8450;SDS011;4262;50.980;13.892;2022-12-07T07:30:52;12.83;;;7.83;;
8450;SDS011;4262;50.980;13.892;2022-12-07T07:33:20;11.67;;;6.73;;
8450;SDS011;4262;50.980;13.892;2022-12-07T07:35:48;12.00;;;7.77;;
8450;SDS011;4262;50.980;13.892;2022-12-07T07:38:15;12.80;;;7.80;;
8450;SDS011;4262;50.980;13.892;2022-12-07T07:40:42;14.90;;;7.87;;
8450;SDS011;4262;50.980;13.892;2022-12-07T07:43:09;11.90;;;8.20;;
8450;SDS011;4262;50.980;13.892;2022-12-07T07:45:36;12.40;;;7.07;;
8450;SDS011;4262;50.980;13.892;2022-12-07T07:48:02;13.33;;;8.20;;
8450;SDS011;4262;50.980;13.892;2022-12-07T07:50:31;12.27;;;8.23;;
8450;SDS011;4262;50.980;13.892;2022-12-07T07:52:59;14.13;;;7.40;;
8450;SDS011;4262;50.980;13.892;2022-12-07T07:55:26;11.13;;;7.70;;
8450;SDS011;4262;50.980;13.892;2022-12-07T07:57:53;13.03;;;7.93;;
8450;SDS011;4262;50.980;13.892;2022-12-07T08:00:21;10.40;;;6.77;;
8450;SDS011;4262;50.980;13.892;2022-12-07T08:02:48;11.60;;;8.07;;
8450;SDS011;4262;50.980;13.892;2022-12-07T08:05:17;10.37;;;7.00;;
8450;SDS011;4262;50.980;13.892;2022-12-07T08:07:44;9.40;;;6.50;;
8450;SDS011;4262;50.980;13.892;2022-12-07T08:10:13;9.83;;;7.13;;
8450;SDS011;4262;50.980;13.892;2022-12-07T08:12:41;12.40;;;6.87;;
8450;SDS011;4262;50.980;13.892;2022-12-07T08:15:22;10.57;;;8.03;;
8450;SDS011;4262;50.980;13.892;2022-12-07T08:17:51;12.20;;;8.10;;
8450;SDS011;4262;50.980;13.892;2022-12-07T08:20:18;11.30;;;7.87;;
8450;SDS011;4262;50.980;13.892;2022-12-07T08:22:44;13.07;;;9.00;;
8450;SDS011;4262;50.980;13.892;2022-12-07T08:25:14;11.33;;;8.00;;
8450;SDS011;4262;50.980;13.892;2022-12-07T08:27:41;15.70;;;9.77;;
8450;SDS011;4262;50.980;13.892;2022-12-07T08:30:08;13.10;;;9.10;;
8450;SDS011;4262;50.980;13.892;2022-12-07T08:32:37;13.40;;;9.77;;
8450;SDS011;4262;50.980;13.892;2022-12-07T08:35:04;11.97;;;8.80;;
8450;SDS011;4262;50.980;13.892;2022-12-07T08:37:31;14.57;;;8.70;;
8450;SDS011;4262;50.980;13.892;2022-12-07T08:39:58;12.60;;;8.37;;
8450;SDS011;4262;50.980;13.892;2022-12-07T08:42:26;13.80;;;9.17;;
8450;SDS011;4262;50.980;13.892;2022-12-07T08:44:56;13.73;;;9.30;;
8450;SDS011;4262;50.980;13.892;2022-12-07T08:47:23;14.30;;;9.20;;
8450;SDS011;4262;50.980;13.892;2022-12-07T08:49:53;17.60;;;10.23;;
8450;SDS011;4262;50.980;13.892;2022-12-07T08:52:20;13.27;;;8.60;;
8450;SDS011;4262;50.980;13.892;2022-12-07T08:54:49;15.60;;;8.50;;
8450;SDS011;4262;50.980;13.892;2022-12-07T08:57:16;14.67;;;9.73;;
8450;SDS011;4262;50.980;13.892;2022-12-07T08:59:44;16.03;;;9.50;;
8450;SDS011;4262;50.980;13.892;2022-12-07T09:02:11;13.83;;;8.80;;
8450;SDS011;4262;50.980;13.892;2022-12-07T09:04:38;15.70;;;9.43;;
8450;SDS011;4262;50.980;13.892;2022-12-07T09:07:05;14.93;;;9.53;;
8450;SDS011;4262;50.980;13.892;2022-12-07T09:09:32;13.63;;;9.50;;
8450;SDS011;4262;50.980;13.892;2022-12-07T09:11:59;13.13;;;8.10;;
8450;SDS011;4262;50.980;13.892;2022-12-07T09:14:27;15.23;;;9.63;;
8450;SDS011;4262;50.980;13.892;2022-12-07T09:16:56;15.17;;;9.57;;
8450;SDS011;4262;50.980;13.892;2022-12-07T09:19:33;13.87;;;9.13;;
8450;SDS011;4262;50.980;13.892;2022-12-07T09:22:00;17.00;;;9.17;;
8450;SDS011;4262;50.980;13.892;2022-12-07T09:24:29;15.40;;;10.93;;
8450;SDS011;4262;50.980;13.892;2022-12-07T09:26:56;14.00;;;8.40;;
8450;SDS011;4262;50.980;13.892;2022-12-07T09:29:23;14.83;;;9.37;;
8450;SDS011;4262;50.980;13.892;2022-12-07T09:31:51;14.97;;;10.10;;
8450;SDS011;4262;50.980;13.892;2022-12-07T09:34:21;12.20;;;8.47;;
8450;SDS011;4262;50.980;13.892;2022-12-07T09:36:48;11.20;;;7.17;;
8450;SDS011;4262;50.980;13.892;2022-12-07T09:39:15;13.97;;;7.60;;
8450;SDS011;4262;50.980;13.892;2022-12-07T09:41:42;11.37;;;7.00;;
8450;SDS011;4262;50.980;13.892;2022-12-07T09:44:13;15.37;;;7.27;;
8450;SDS011;4262;50.980;13.892;2022-12-07T09:46:49;13.77;;;8.00;;
8450;SDS011;4262;50.980;13.892;2022-12-07T09:49:21;13.37;;;8.10;;
8450;SDS011;4262;50.980;13.892;2022-12-07T09:51:59;12.20;;;8.10;;
8450;SDS011;4262;50.980;13.892;2022-12-07T09:54:30;13.47;;;7.83;;
8450;SDS011;4262;50.980;13.892;2022-12-07T09:56:58;14.00;;;7.60;;
8450;SDS011;4262;50.980;13.892;2022-12-07T09:59:25;12.20;;;6.00;;
8450;SDS011;4262;50.980;13.892;2022-12-07T10:01:52;16.93;;;7.00;;
8450;SDS011;4262;50.980;13.892;2022-12-07T10:04:22;14.07;;;7.60;;
8450;SDS011;4262;50.980;13.892;2022-12-07T10:06:51;13.93;;;8.67;;
8450;SDS011;4262;50.980;13.892;2022-12-07T10:09:19;12.77;;;7.50;;
8450;SDS011;4262;50.980;13.892;2022-12-07T10:12:04;12.43;;;7.67;;
8450;SDS011;4262;50.980;13.892;2022-12-07T10:14:35;17.77;;;7.80;;
8450;SDS011;4262;50.980;13.892;2022-12-07T10:17:08;11.27;;;6.70;;
8450;SDS011;4262;50.980;13.892;2022-12-07T10:20:16;10.90;;;6.40;;
8450;SDS011;4262;50.980;13.892;2022-12-07T10:25:34;11.37;;;7.07;;
8450;SDS011;4262;50.980;13.892;2022-12-07T10:28:10;10.90;;;5.70;;
8450;SDS011;4262;50.980;13.892;2022-12-07T10:30:50;11.87;;;6.33;;
8450;SDS011;4262;50.980;13.892;2022-12-07T10:33:35;12.70;;;5.90;;
8450;SDS011;4262;50.980;13.892;2022-12-07T10:36:19;12.77;;;5.80;;
8450;SDS011;4262;50.980;13.892;2022-12-07T10:38:49;15.87;;;6.20;;
8450;SDS011;4262;50.980;13.892;2022-12-07T10:41:18;17.30;;;6.27;;
8450;SDS011;4262;50.980;13.892;2022-12-07T10:43:49;11.73;;;6.67;;
8450;SDS011;4262;50.980;13.892;2022-12-07T10:46:25;13.57;;;5.97;;
8450;SDS011;4262;50.980;13.892;2022-12-07T10:49:09;10.67;;;6.07;;
8450;SDS011;4262;50.980;13.892;2022-12-07T10:52:07;15.73;;;5.53;;
8450;SDS011;4262;50.980;13.892;2022-12-07T10:54:46;12.57;;;6.60;;
8450;SDS011;4262;50.980;13.892;2022-12-07T10:57:32;10.20;;;6.30;;
8450;SDS011;4262;50.980;13.892;2022-12-07T11:00:09;13.80;;;6.83;;
8450;SDS011;4262;50.980;13.892;2022-12-07T11:02:46;10.97;;;6.53;;
8450;SDS011;4262;50.980;13.892;2022-12-07T11:05:28;10.90;;;7.03;;
8450;SDS011;4262;50.980;13.892;2022-12-07T11:08:05;10.93;;;6.80;;
8450;SDS011;4262;50.980;13.892;2022-12-07T11:10:43;15.87;;;7.00;;
8450;SDS011;4262;50.980;13.892;2022-12-07T11:13:18;11.47;;;6.97;;
8450;SDS011;4262;50.980;13.892;2022-12-07T11:16:01;12.57;;;7.07;;
8450;SDS011;4262;50.980;13.892;2022-12-07T11:18:36;11.47;;;7.43;;
8450;SDS011;4262;50.980;13.892;2022-12-07T11:21:12;15.80;;;7.60;;
8450;SDS011;4262;50.980;13.892;2022-12-07T11:23:49;17.97;;;6.90;;
8450;SDS011;4262;50.980;13.892;2022-12-07T11:26:25;14.00;;;6.73;;
8450;SDS011;4262;50.980;13.892;2022-12-07T11:29:06;12.10;;;6.57;;
8450;SDS011;4262;50.980;13.892;2022-12-07T11:31:52;13.77;;;6.57;;
8450;SDS011;4262;50.980;13.892;2022-12-07T11:34:30;11.30;;;6.40;;
8450;SDS011;4262;50.980;13.892;2022-12-07T11:37:07;13.03;;;7.00;;
8450;SDS011;4262;50.980;13.892;2022-12-07T11:39:41;12.40;;;6.60;;
8450;SDS011;4262;50.980;13.892;2022-12-07T11:42:14;12.83;;;7.13;;
8450;SDS011;4262;50.980;13.892;2022-12-07T11:44:49;12.23;;;7.90;;
8450;SDS011;4262;50.980;13.892;2022-12-07T11:47:21;14.57;;;6.43;;
8450;SDS011;4262;50.980;13.892;2022-12-07T11:49:54;11.17;;;7.23;;
8450;SDS011;4262;50.980;13.892;2022-12-07T11:52:30;11.53;;;6.60;;
8450;SDS011;4262;50.980;13.892;2022-12-07T11:55:16;14.60;;;8.50;;
8450;SDS011;4262;50.980;13.892;2022-12-07T11:57:49;15.87;;;7.67;;
8450;SDS011;4262;50.980;13.892;2022-12-07T12:00:19;19.53;;;7.73;;
8450;SDS011;4262;50.980;13.892;2022-12-07T12:02:48;21.70;;;8.50;;
8450;SDS011;4262;50.980;13.892;2022-12-07T12:05:21;13.87;;;7.97;;
8450;SDS011;4262;50.980;13.892;2022-12-07T12:07:52;13.67;;;6.83;;
8450;SDS011;4262;50.980;13.892;2022-12-07T12:10:27;10.70;;;6.40;;
8450;SDS011;4262;50.980;13.892;2022-12-07T12:13:13;17.83;;;7.50;;
8450;SDS011;4262;50.980;13.892;2022-12-07T12:16:01;15.20;;;7.77;;
8450;SDS011;4262;50.980;13.892;2022-12-07T12:18:40;10.90;;;6.90;;
8450;SDS011;4262;50.980;13.892;2022-12-07T12:21:20;16.70;;;8.30;;
8450;SDS011;4262;50.980;13.892;2022-12-07T12:23:55;13.07;;;7.73;;
8450;SDS011;4262;50.980;13.892;2022-12-07T12:26:27;16.47;;;8.27;;
8450;SDS011;4262;50.980;13.892;2022-12-07T12:28:57;12.40;;;8.07;;
8450;SDS011;4262;50.980;13.892;2022-12-07T12:31:34;13.53;;;7.77;;
8450;SDS011;4262;50.980;13.892;2022-12-07T12:34:04;14.53;;;8.43;;
8450;SDS011;4262;50.980;13.892;2022-12-07T12:36:58;14.50;;;8.17;;
8450;SDS011;4262;50.980;13.892;2022-12-07T12:39:25;18.27;;;7.97;;
8450;SDS011;4262;50.980;13.892;2022-12-07T12:41:54;14.77;;;7.67;;
8450;SDS011;4262;50.980;13.892;2022-12-07T12:44:41;18.60;;;8.23;;
8450;SDS011;4262;50.980;13.892;2022-12-07T12:47:55;12.73;;;7.50;;
8450;SDS011;4262;50.980;13.892;2022-12-07T12:50:28;11.43;;;7.37;;
8450;SDS011;4262;50.980;13.892;2022-12-07T12:53:01;11.77;;;7.10;;
8450;SDS011;4262;50.980;13.892;2022-12-07T13:01:51;12.93;;;8.20;;
8450;SDS011;4262;50.980;13.892;2022-12-07T13:04:23;8.80;;;6.37;;
8450;SDS011;4262;50.980;13.892;2022-12-07T13:06:53;10.53;;;6.27;;
8450;SDS011;4262;50.980;13.892;2022-12-07T13:09:21;16.50;;;6.00;;
8450;SDS011;4262;50.980;13.892;2022-12-07T13:11:55;9.97;;;6.90;;
8450;SDS011;4262;50.980;13.892;2022-12-07T13:14:40;11.97;;;6.60;;
8450;SDS011;4262;50.980;13.892;2022-12-07T13:23:14;12.73;;;7.30;;
8450;SDS011;4262;50.980;13.892;2022-12-07T13:25:46;17.63;;;8.00;;
8450;SDS011;4262;50.980;13.892;2022-12-07T13:28:18;14.70;;;7.90;;
8450;SDS011;4262;50.980;13.892;2022-12-07T13:30:50;14.60;;;8.50;;
8450;SDS011;4262;50.980;13.892;2022-12-07T13:33:30;18.83;;;10.63;;
8450;SDS011;4262;50.980;13.892;2022-12-07T13:36:02;15.87;;;11.00;;
8450;SDS011;4262;50.980;13.892;2022-12-07T13:38:30;16.63;;;7.80;;
8450;SDS011;4262;50.980;13.892;2022-12-07T13:41:03;14.07;;;7.03;;
8450;SDS011;4262;50.980;13.892;2022-12-07T13:43:41;15.60;;;8.93;;
8450;SDS011;4262;50.980;13.892;2022-12-07T13:46:11;15.60;;;7.57;;
8450;SDS011;4262;50.980;13.892;2022-12-07T13:48:43;13.57;;;8.57;;
8450;SDS011;4262;50.980;13.892;2022-12-07T13:51:16;15.83;;;7.43;;
8450;SDS011;4262;50.980;13.892;2022-12-07T13:53:46;14.53;;;8.20;;
8450;SDS011;4262;50.980;13.892;2022-12-07T13:56:14;10.63;;;6.47;;
8450;SDS011;4262;50.980;13.892;2022-12-07T13:58:41;9.60;;;5.57;;
8450;SDS011;4262;50.980;13.892;2022-12-07T14:01:08;12.77;;;4.17;;
8450;SDS011;4262;50.980;13.892;2022-12-07T14:03:37;10.30;;;5.50;;
8450;SDS011;4262;50.980;13.892;2022-12-07T14:06:05;14.83;;;5.33;;
8450;SDS011;4262;50.980;13.892;2022-12-07T14:08:38;8.87;;;5.50;;
8450;SDS011;4262;50.980;13.892;2022-12-07T14:11:05;8.70;;;5.70;;
8450;SDS011;4262;50.980;13.892;2022-12-07T14:13:38;8.50;;;5.30;;
8450;SDS011;4262;50.980;13.892;2022-12-07T14:16:18;10.67;;;6.13;;
8450;SDS011;4262;50.980;13.892;2022-12-07T14:18:53;10.77;;;7.20;;
8450;SDS011;4262;50.980;13.892;2022-12-07T14:21:21;15.23;;;7.60;;
8450;SDS011;4262;50.980;13.892;2022-12-07T14:24:06;11.90;;;7.03;;
8450;SDS011;4262;50.980;13.892;2022-12-07T14:26:36;13.00;;;6.90;;
8450;SDS011;4262;50.980;13.892;2022-12-07T14:29:29;12.13;;;6.90;;
8450;SDS011;4262;50.980;13.892;2022-12-07T14:32:08;11.10;;;6.70;;
8450;SDS011;4262;50.980;13.892;2022-12-07T14:34:58;15.83;;;8.40;;
8450;SDS011;4262;50.980;13.892;2022-12-07T14:37:27;15.13;;;8.17;;
8450;SDS011;4262;50.980;13.892;2022-12-07T14:39:55;13.37;;;7.13;;
8450;SDS011;4262;50.980;13.892;2022-12-07T14:42:22;12.67;;;6.30;;
8450;SDS011;4262;50.980;13.892;2022-12-07T14:44:51;13.87;;;7.60;;
8450;SDS011;4262;50.980;13.892;2022-12-07T14:47:18;17.33;;;11.17;;
8450;SDS011;4262;50.980;13.892;2022-12-07T14:49:45;24.50;;;13.27;;
8450;SDS011;4262;50.980;13.892;2022-12-07T14:52:15;20.70;;;13.10;;
8450;SDS011;4262;50.980;13.892;2022-12-07T14:54:44;19.03;;;9.47;;
8450;SDS011;4262;50.980;13.892;2022-12-07T14:57:11;13.57;;;10.63;;
8450;SDS011;4262;50.980;13.892;2022-12-07T14:59:38;12.83;;;8.50;;
8450;SDS011;4262;50.980;13.892;2022-12-07T15:02:05;11.10;;;7.60;;
8450;SDS011;4262;50.980;13.892;2022-12-07T15:04:32;9.47;;;7.30;;
8450;SDS011;4262;50.980;13.892;2022-12-07T15:07:00;12.30;;;8.07;;
8450;SDS011;4262;50.980;13.892;2022-12-07T15:09:30;10.07;;;6.77;;
8450;SDS011;4262;50.980;13.892;2022-12-07T15:11:57;12.37;;;7.70;;
8450;SDS011;4262;50.980;13.892;2022-12-07T15:14:24;9.93;;;6.27;;
8450;SDS011;4262;50.980;13.892;2022-12-07T15:16:51;16.27;;;8.40;;
8450;SDS011;4262;50.980;13.892;2022-12-07T15:19:18;11.40;;;8.07;;
8450;SDS011;4262;50.980;13.892;2022-12-07T15:21:48;15.93;;;8.30;;
8450;SDS011;4262;50.980;13.892;2022-12-07T15:24:15;12.70;;;7.57;;
8450;SDS011;4262;50.980;13.892;2022-12-07T15:26:44;15.23;;;7.80;;
8450;SDS011;4262;50.980;13.892;2022-12-07T15:29:11;12.47;;;8.70;;
8450;SDS011;4262;50.980;13.892;2022-12-07T15:31:40;14.17;;;8.93;;
8450;SDS011;4262;50.980;13.892;2022-12-07T15:34:07;18.13;;;9.17;;
8450;SDS011;4262;50.980;13.892;2022-12-07T15:36:34;15.43;;;9.43;;
8450;SDS011;4262;50.980;13.892;2022-12-07T15:39:01;15.20;;;9.50;;
8450;SDS011;4262;50.980;13.892;2022-12-07T15:41:29;17.23;;;9.57;;
8450;SDS011;4262;50.980;13.892;2022-12-07T15:43:57;14.57;;;8.33;;
8450;SDS011;4262;50.980;13.892;2022-12-07T15:46:42;10.83;;;6.17;;
8450;SDS011;4262;50.980;13.892;2022-12-07T15:49:10;13.10;;;8.40;;
8450;SDS011;4262;50.980;13.892;2022-12-07T15:51:40;11.67;;;6.50;;
8450;SDS011;4262;50.980;13.892;2022-12-07T15:54:07;12.10;;;6.13;;
8450;SDS011;4262;50.980;13.892;2022-12-07T15:56:38;14.30;;;6.33;;
8450;SDS011;4262;50.980;13.892;2022-12-07T15:59:06;21.60;;;8.47;;
8450;SDS011;4262;50.980;13.892;2022-12-07T16:01:33;14.43;;;6.83;;
8450;SDS011;4262;50.980;13.892;2022-12-07T16:04:00;16.70;;;6.50;;
8450;SDS011;4262;50.980;13.892;2022-12-07T16:06:27;12.50;;;6.20;;
8450;SDS011;4262;50.980;13.892;2022-12-07T16:08:54;10.83;;;5.87;;
8450;SDS011;4262;50.980;13.892;2022-12-07T16:11:21;10.90;;;5.70;;
8450;SDS011;4262;50.980;13.892;2022-12-07T16:13:49;13.90;;;6.97;;
8450;SDS011;4262;50.980;13.892;2022-12-07T16:16:18;14.40;;;7.50;;
8450;SDS011;4262;50.980;13.892;2022-12-07T16:18:49;12.80;;;6.23;;
8450;SDS011;4262;50.980;13.892;2022-12-07T16:21:17;17.23;;;8.83;;
8450;SDS011;4262;50.980;13.892;2022-12-07T16:23:44;16.83;;;8.83;;
8450;SDS011;4262;50.980;13.892;2022-12-07T16:26:11;13.47;;;8.37;;
8450;SDS011;4262;50.980;13.892;2022-12-07T16:28:40;16.73;;;9.33;;
8450;SDS011;4262;50.980;13.892;2022-12-07T16:31:08;15.50;;;10.60;;
8450;SDS011;4262;50.980;13.892;2022-12-07T16:33:38;12.33;;;7.07;;
8450;SDS011;4262;50.980;13.892;2022-12-07T16:36:06;11.97;;;8.00;;
8450;SDS011;4262;50.980;13.892;2022-12-07T16:38:35;12.97;;;7.80;;
8450;SDS011;4262;50.980;13.892;2022-12-07T16:41:03;11.77;;;8.37;;
8450;SDS011;4262;50.980;13.892;2022-12-07T16:43:30;10.90;;;7.83;;
8450;SDS011;4262;50.980;13.892;2022-12-07T16:45:58;13.57;;;8.17;;
8450;SDS011;4262;50.980;13.892;2022-12-07T16:48:26;11.70;;;8.13;;
8450;SDS011;4262;50.980;13.892;2022-12-07T16:50:54;14.47;;;8.97;;
8450;SDS011;4262;50.980;13.892;2022-12-07T16:53:21;18.13;;;10.20;;
8450;SDS011;4262;50.980;13.892;2022-12-07T16:55:50;16.77;;;8.90;;
8450;SDS011;4262;50.980;13.892;2022-12-07T16:58:18;15.73;;;9.97;;
8450;SDS011;4262;50.980;13.892;2022-12-07T17:00:45;13.83;;;9.17;;
8450;SDS011;4262;50.980;13.892;2022-12-07T17:03:12;20.47;;;8.30;;
8450;SDS011;4262;50.980;13.892;2022-12-07T17:05:40;14.70;;;7.43;;
8450;SDS011;4262;50.980;13.892;2022-12-07T17:08:09;12.90;;;7.70;;
8450;SDS011;4262;50.980;13.892;2022-12-07T17:10:38;10.90;;;7.07;;
8450;SDS011;4262;50.980;13.892;2022-12-07T17:13:06;9.70;;;7.23;;
8450;SDS011;4262;50.980;13.892;2022-12-07T17:15:59;14.13;;;8.67;;
8450;SDS011;4262;50.980;13.892;2022-12-07T17:18:29;13.70;;;7.03;;
8450;SDS011;4262;50.980;13.892;2022-12-07T17:21:01;9.93;;;6.53;;
8450;SDS011;4262;50.980;13.892;2022-12-07T17:23:31;12.20;;;7.30;;
8450;SDS011;4262;50.980;13.892;2022-12-07T17:26:03;10.20;;;7.37;;
8450;SDS011;4262;50.980;13.892;2022-12-07T17:28:31;14.40;;;8.13;;
8450;SDS011;4262;50.980;13.892;2022-12-07T17:30:58;10.80;;;6.77;;
8450;SDS011;4262;50.980;13.892;2022-12-07T17:33:25;11.37;;;6.40;;
8450;SDS011;4262;50.980;13.892;2022-12-07T17:35:53;10.70;;;6.63;;
8450;SDS011;4262;50.980;13.892;2022-12-07T17:38:20;10.07;;;6.10;;
8450;SDS011;4262;50.980;13.892;2022-12-07T17:40:48;13.67;;;6.47;;
8450;SDS011;4262;50.980;13.892;2022-12-07T17:43:15;9.37;;;5.67;;
8450;SDS011;4262;50.980;13.892;2022-12-07T17:45:42;9.80;;;5.40;;
8450;SDS011;4262;50.980;13.892;2022-12-07T17:48:09;7.80;;;5.17;;
8450;SDS011;4262;50.980;13.892;2022-12-07T17:50:36;10.83;;;5.43;;
8450;SDS011;4262;50.980;13.892;2022-12-07T17:53:22;14.63;;;5.70;;
8450;SDS011;4262;50.980;13.892;2022-12-07T17:55:53;12.20;;;6.17;;
8450;SDS011;4262;50.980;13.892;2022-12-07T17:58:20;11.87;;;6.20;;
8450;SDS011;4262;50.980;13.892;2022-12-07T18:00:46;12.00;;;6.73;;
8450;SDS011;4262;50.980;13.892;2022-12-07T18:03:13;14.57;;;6.70;;
8450;SDS011;4262;50.980;13.892;2022-12-07T18:05:41;11.77;;;6.10;;
8450;SDS011;4262;50.980;13.892;2022-12-07T18:08:09;10.20;;;6.47;;
8450;SDS011;4262;50.980;13.892;2022-12-07T18:10:36;10.07;;;6.80;;
8450;SDS011;4262;50.980;13.892;2022-12-07T18:13:04;9.13;;;6.30;;
8450;SDS011;4262;50.980;13.892;2022-12-07T18:15:54;11.20;;;6.10;;
8450;SDS011;4262;50.980;13.892;2022-12-07T18:18:23;12.30;;;7.00;;
8450;SDS011;4262;50.980;13.892;2022-12-07T18:20:50;11.00;;;6.00;;
8450;SDS011;4262;50.980;13.892;2022-12-07T18:23:17;9.17;;;5.90;;
8450;SDS011;4262;50.980;13.892;2022-12-07T18:25:46;12.07;;;5.83;;
8450;SDS011;4262;50.980;13.892;2022-12-07T18:28:14;10.20;;;5.53;;
8450;SDS011;4262;50.980;13.892;2022-12-07T18:30:41;7.23;;;5.10;;
8450;SDS011;4262;50.980;13.892;2022-12-07T18:33:15;12.43;;;5.80;;
8450;SDS011;4262;50.980;13.892;2022-12-07T18:35:43;11.53;;;6.33;;
8450;SDS011;4262;50.980;13.892;2022-12-07T18:38:10;11.50;;;6.47;;
8450;SDS011;4262;50.980;13.892;2022-12-07T18:40:37;16.60;;;7.37;;
8450;SDS011;4262;50.980;13.892;2022-12-07T18:43:05;11.10;;;6.00;;
8450;SDS011;4262;50.980;13.892;2022-12-07T18:45:34;9.00;;;6.07;;
8450;SDS011;4262;50.980;13.892;2022-12-07T18:48:03;10.30;;;5.67;;
8450;SDS011;4262;50.980;13.892;2022-12-07T18:50:30;9.40;;;5.70;;
8450;SDS011;4262;50.980;13.892;2022-12-07T18:52:57;9.97;;;6.87;;
8450;SDS011;4262;50.980;13.892;2022-12-07T18:55:24;10.83;;;6.70;;
8450;SDS011;4262;50.980;13.892;2022-12-07T18:57:51;11.20;;;5.47;;
8450;SDS011;4262;50.980;13.892;2022-12-07T19:00:18;13.73;;;7.33;;
8450;SDS011;4262;50.980;13.892;2022-12-07T19:02:46;9.90;;;5.37;;
8450;SDS011;4262;50.980;13.892;2022-12-07T19:05:13;10.53;;;5.70;;
8450;SDS011;4262;50.980;13.892;2022-12-07T19:07:40;10.10;;;5.00;;
8450;SDS011;4262;50.980;13.892;2022-12-07T19:10:07;7.50;;;5.17;;
8450;SDS011;4262;50.980;13.892;2022-12-07T19:12:34;8.80;;;4.50;;
8450;SDS011;4262;50.980;13.892;2022-12-07T19:15:02;7.80;;;5.03;;
8450;SDS011;4262;50.980;13.892;2022-12-07T19:17:30;12.43;;;6.10;;
8450;SDS011;4262;50.980;13.892;2022-12-07T19:19:58;10.83;;;4.87;;
8450;SDS011;4262;50.980;13.892;2022-12-07T19:22:25;8.03;;;4.73;;
8450;SDS011;4262;50.980;13.892;2022-12-07T19:24:52;10.80;;;4.40;;
8450;SDS011;4262;50.980;13.892;2022-12-07T19:27:20;9.30;;;4.20;;
8450;SDS011;4262;50.980;13.892;2022-12-07T19:29:48;6.77;;;5.40;;
8450;SDS011;4262;50.980;13.892;2022-12-07T19:32:16;8.20;;;4.43;;
8450;SDS011;4262;50.980;13.892;2022-12-07T19:34:43;9.40;;;5.17;;
8450;SDS011;4262;50.980;13.892;2022-12-07T19:37:13;7.70;;;4.50;;
8450;SDS011;4262;50.980;13.892;2022-12-07T19:39:40;9.00;;;6.00;;
8450;SDS011;4262;50.980;13.892;2022-12-07T19:42:08;8.20;;;5.40;;
8450;SDS011;4262;50.980;13.892;2022-12-07T19:44:36;11.20;;;5.37;;
8450;SDS011;4262;50.980;13.892;2022-12-07T19:47:03;12.40;;;5.40;;
8450;SDS011;4262;50.980;13.892;2022-12-07T19:49:31;6.70;;;4.80;;
8450;SDS011;4262;50.980;13.892;2022-12-07T19:52:01;7.50;;;4.70;;